• Join FlightAware (Why Join?)
  • Login
  • US Flag 
12:59PM EDT


 

Airport Tracker/Info


-or-


 

Live Flight TrackerFlight Track Log ✈ SWA1802 ✈ 30-Jul-2013 ✈ KMDW - KLAX

Flight Track Log - Related Links

Times and Time Zones

All times are in EDT time to prevent confusion due to time zone crossing. See the SWA1802 flight status page for this flight to view local times or setup timezone preferences in your user account.

Time Position Orientation Groundspeed Altitude Reporting Facility
EDT Latitude Longitude Course Direction KTS MPH feet Rate Location/Type
07:00PM 41.7730 -87.7680 233° Southwest 158 182 1,400  Level FlightAware
07:00PM 41.7690 -87.7800 246° West 173 199 1,800 1,500 Climbing FlightAware
07:00PM 41.7620 -87.8020 247° West 205 236 2,200 1,320 Climbing FlightAware
07:01PM 41.7530 -87.8340 249° West 241 277 2,800 1,740 Climbing FlightAware
07:01PM 41.7460 -87.8630 252° West 262 302 3,500 2,820 Climbing FlightAware
07:01PM 41.7410 -87.8860 254° West 262 302 4,400 3,780 Climbing FlightAware
07:01PM 41.7410 -87.8980 270° West 264 304 4,900 3,420 Climbing FlightAware
07:02PM 41.7410 -87.9280 270° West 265 305 6,000 3,120 Climbing FlightAware
07:02PM 41.7420 -87.9550 273° West 270 311 6,800 2,820 Climbing FlightAware
07:02PM 41.7420 -87.9950 270° West 279 321 7,900 2,880 Climbing FlightAware
07:03PM 41.7420 -88.0320 270° West 284 327 9,000 2,820 Climbing FlightAware
07:03PM 41.7430 -88.0640 272° West 287 330 9,800 2,760 Climbing FlightAware
07:04PM 41.7430 -88.1340 270° West 296 341 11,600 2,520 Climbing FlightAware
07:04PM 41.7430 -88.2020 270° West 310 357 12,900 1,620 Climbing FlightAware
07:05PM 41.7420 -88.2730 269° West 344 396 13,600 1,200 Climbing FlightAware
07:05PM 41.7400 -88.3410 268° West 369 425 14,300 1,920 Climbing FlightAware
07:06PM 41.7350 -88.4290 266° West 380 437 15,800 2,340 Climbing FlightAware
07:07PM 41.7240 -88.4960 258° West 385 443 17,000 2,220 Climbing FlightAware
07:07PM 41.7030 -88.6080 256° West 394 453 18,700 2,160 Climbing FlightAware
07:08PM 41.6870 -88.6970 256° West 401 461 20,000 2,040 Climbing FlightAware
07:09PM 41.6720 -88.7790 256° West 406 467 21,100 1,860 Climbing FlightAware
07:09PM 41.6570 -88.8640 257° West 412 474 22,200 1,800 Climbing FlightAware
07:10PM 41.6410 -88.9550 257° West 416 479 23,300 1,860 Climbing FlightAware
07:10PM 41.6240 -89.0450 256° West 416 479 24,500 1,920 Climbing FlightAware
07:11PM 41.6090 -89.1260 256° West 417 480 25,500 1,500 Climbing FlightAware
07:11PM 41.5940 -89.2090 256° West 425 489 26,200 1,140 Climbing FlightAware
07:12PM 41.5760 -89.3090 257° West 437 503 26,900 1,260 Climbing FlightAware
07:13PM 41.5600 -89.3930 256° West 435 501 27,700 1,320 Climbing FlightAware
07:13PM 41.5440 -89.4810 256° West 438 504 28,400 1,440 Climbing FlightAware
07:14PM 41.5300 -89.5720 258° West 435 501 29,400 1,620 Climbing FlightAware
07:14PM 41.5180 -89.6680 261° West 432 497 30,300 1,260 Climbing FlightAware
07:15PM 41.5060 -89.7660 261° West 431 496 31,000 540 Climbing FlightAware
07:16PM 41.4940 -89.8540 260° West 430 495 31,000  Level FlightAware
07:16PM 41.4810 -89.9520 260° West 428 493 31,000  Level FlightAware
07:17PM 41.4700 -90.0360 260° West 427 491 31,000  Level FlightAware
07:17PM 41.4580 -90.1290 260° West 426 490 31,000 300 Level FlightAware
07:18PM 41.4460 -90.2210 260° West 426 490 31,400 1,020 Climbing FlightAware
07:18PM 41.4350 -90.3040 260° West 422 486 32,200 1,380 Climbing FlightAware
07:19PM 41.4230 -90.3920 260° West 417 480 33,000 1,320 Climbing FlightAware
07:20PM 41.4110 -90.4760 259° West 415 478 33,700 840 Climbing FlightAware
07:20PM 41.3990 -90.5680 260° West 417 480 34,000 180 Climbing FlightAware
07:21PM 41.3830 -90.6810 259° West 417 480 34,000 360 Level FlightAware
07:22PM 41.3720 -90.7640 260° West 417 480 34,500 840 Climbing FlightAware
07:22PM 41.3600 -90.8450 259° West 417 480 35,000 840 Climbing FlightAware
07:23PM 41.3470 -90.9400 260° West 416 479 35,500 780 Climbing FlightAware
07:23PM 41.3340 -91.0310 259° West 412 474 36,000 360 Climbing FlightAware
07:24PM 41.3220 -91.1190 260° West 408 470 36,000  Level FlightAware
07:24PM 41.3090 -91.2100 259° West 409 471 36,000  Level FlightAware
07:25PM 41.2970 -91.2930 259° West 409 471 36,000  Level FlightAware
07:26PM 41.2830 -91.3860 259° West 408 470 36,000  Level FlightAware
07:27PM 41.2650 -91.5160 260° West 406 467 36,000  Level FlightAware
07:27PM 41.2510 -91.6110 259° West 406 467 36,000  Level FlightAware
07:28PM 41.2380 -91.6950 258° West 405 466 36,000  Level FlightAware
07:28PM 41.2250 -91.7840 259° West 404 465 36,000  Level FlightAware
07:29PM 41.2140 -91.8630 260° West 403 464 36,000  Level FlightAware
07:30PM 41.1980 -91.9600 258° West 403 464 36,000  Level FlightAware
07:30PM 41.1860 -92.0470 260° West 403 464 36,000  Level FlightAware
07:31PM 41.1690 -92.1580 259° West 404 465 36,000  Level FlightAware
07:31PM 41.1580 -92.2310 259° West 403 464 36,000  Level FlightAware
07:32PM 41.1450 -92.3190 259° West 404 465 36,000  Level FlightAware
07:33PM 41.1320 -92.4000 258° West 405 466 36,000  Level FlightAware
07:33PM 41.1160 -92.5010 258° West 406 467 36,000  Level FlightAware
07:34PM 41.1050 -92.5740 259° West 407 468 36,000  Level FlightAware
07:34PM 41.0910 -92.6650 258° West 407 468 36,000  Level FlightAware
07:35PM 41.0770 -92.7540 258° West 408 470 36,000  Level FlightAware
07:36PM 41.0650 -92.8320 258° West 407 468 36,000  Level FlightAware
07:36PM 41.0500 -92.9260 258° West 407 468 36,000  Level FlightAware
07:37PM 41.0380 -93.0020 258° West 408 470 36,000  Level FlightAware
07:37PM 41.0220 -93.1020 258° West 408 470 36,000  Level FlightAware
07:38PM 41.0120 -93.1630 258° West 408 470 36,000  Level FlightAware
07:39PM 40.9950 -93.2700 258° West 407 468 36,000  Level FlightAware
07:39PM 40.9810 -93.3550 258° West 408 470 36,000  Level FlightAware
07:40PM 40.9660 -93.4420 257° West 408 470 36,000  Level FlightAware
07:40PM 40.9550 -93.5110 258° West 407 468 36,000  Level FlightAware
07:41PM 40.9350 -93.6300 257° West 407 468 36,000  Level FlightAware
07:42PM 40.9160 -93.7450 258° West 406 467 36,000  Level FlightAware
07:43PM 40.9020 -93.8210 256° West 406 467 36,000  Level FlightAware
07:43PM 40.8900 -93.8950 258° West 406 467 36,000  Level FlightAware
07:44PM 40.8770 -93.9700 257° West 406 467 36,000  Level FlightAware
07:44PM 40.8560 -94.1040 258° West 404 465 36,000  Level FlightAware
07:45PM 40.8420 -94.1870 257° West 403 464 36,000  Level FlightAware
07:45PM 40.8270 -94.2740 257° West 403 464 36,000  Level FlightAware
07:46PM 40.8120 -94.3610 257° West 403 464 36,000  Level FlightAware
07:47PM 40.7990 -94.4340 257° West 403 464 36,000  Level FlightAware
07:47PM 40.7820 -94.5330 257° West 403 464 36,000  Level FlightAware
07:48PM 40.7680 -94.6100 257° West 403 464 36,000  Level FlightAware
07:48PM 40.7520 -94.7060 258° West 401 461 36,000  Level FlightAware
07:49PM 40.7380 -94.7850 257° West 401 461 36,000  Level FlightAware
07:50PM 40.7250 -94.8580 257° West 401 461 36,000  Level FlightAware
07:50PM 40.7040 -94.9730 256° West 399 459 36,000  Level FlightAware
07:51PM 40.6900 -95.0520 257° West 399 459 36,000  Level FlightAware
07:52PM 40.6760 -95.1250 256° West 399 459 36,000  Level FlightAware
07:52PM 40.6620 -95.1970 256° West 399 459 36,000  Level FlightAware
07:53PM 40.6480 -95.2710 256° West 399 459 36,000  Level FlightAware
07:53PM 40.6350 -95.3430 257° West 399 459 36,000  Level FlightAware
07:54PM 40.6210 -95.4150 256° West 399 459 36,000  Level FlightAware
07:55PM 40.6070 -95.4880 256° West 399 459 36,000  Level FlightAware
07:55PM 40.5940 -95.5600 257° West 399 459 36,000  Level FlightAware
07:56PM 40.5640 -95.7450 258° West 398 458 36,000  Level FlightAware
07:57PM 40.5450 -95.8450 256° West 398 458 36,000  Level FlightAware
07:57PM 40.5270 -95.9430 256° West 397 457 36,000  Level FlightAware
07:58PM 40.5110 -96.0290 256° West 397 457 36,000  Level FlightAware
07:59PM 40.4960 -96.1050 255° West 397 457 36,000  Level FlightAware
07:59PM 40.4720 -96.2330 256° West 397 457 36,000  Level FlightAware
08:00PM 40.4600 -96.2940 256° West 397 457 36,000  Level FlightAware
08:00PM 40.4440 -96.3790 256° West 397 457 36,000  Level FlightAware
08:01PM 40.4220 -96.4940 256° West 397 457 36,000  Level FlightAware
08:02PM 40.4060 -96.5790 256° West 398 458 36,000  Level FlightAware
08:02PM 40.3920 -96.6440 254° West 398 458 36,000  Level FlightAware
08:03PM 40.3720 -96.7500 256° West 398 458 36,000  Level FlightAware
08:04PM 40.3560 -96.8330 256° West 399 459 36,000  Level FlightAware
08:04PM 40.3390 -96.9190 255° West 398 458 36,000  Level FlightAware
08:05PM 40.3170 -97.0300 255° West 399 459 36,000  Level FlightAware
08:06PM 40.3010 -97.1080 255° West 399 459 36,000  Level FlightAware
08:07PM 40.2770 -97.2300 256° West 399 459 36,000  Level FlightAware
08:07PM 40.2560 -97.3350 255° West 398 458 36,000  Level FlightAware
08:08PM 40.2410 -97.4060 255° West 398 458 36,000  Level FlightAware
08:08PM 40.2270 -97.4770 256° West 398 458 36,000  Level FlightAware
08:09PM 40.2120 -97.5480 255° West 398 458 36,000  Level FlightAware
08:10PM 40.1860 -97.6790 255° West 398 458 36,000  Level FlightAware
08:10PM 40.1680 -97.7670 255° West 398 458 36,000  Level FlightAware
08:11PM 40.1440 -97.8790 254° West 397 457 36,000  Level FlightAware
08:12PM 40.1290 -97.9500 255° West 397 457 36,000  Level FlightAware
08:12PM 40.1130 -98.0200 253° West 397 457 36,000  Level FlightAware
08:13PM 40.0920 -98.1320 256° West 393 452 36,000  Level FlightAware
08:14PM 40.0740 -98.2150 254° West 393 452 36,000  Level FlightAware
08:14PM 40.0590 -98.2850 254° West 393 452 36,000  Level FlightAware
08:15PM 40.0440 -98.3550 254° West 393 452 36,000  Level FlightAware
08:15PM 40.0280 -98.4250 253° West 393 452 36,000  Level FlightAware
08:16PM 40.0130 -98.4950 254° West 393 452 36,000  Level FlightAware
08:17PM 39.9980 -98.5640 254° West 393 452 36,000  Level FlightAware
08:17PM 39.9820 -98.6340 253° West 393 452 36,000  Level FlightAware
08:18PM 39.9670 -98.7040 254° West 393 452 36,000  Level FlightAware
08:18PM 39.9520 -98.7740 254° West 393 452 36,000  Level FlightAware
08:19PM 39.9360 -98.8430 253° West 393 452 36,000  Level FlightAware
08:20PM 39.9190 -98.9210 254° West 393 452 36,000  Level FlightAware
08:20PM 39.9040 -98.9910 254° West 393 452 36,000  Level FlightAware
08:21PM 39.8880 -99.0600 253° West 393 452 36,000  Level FlightAware
08:22PM 39.8730 -99.1300 254° West 393 452 36,000  Level FlightAware
08:22PM 39.8630 -99.1770 255° West 393 452 36,000  Level FlightAware
08:23PM 39.8370 -99.2930 254° West 393 452 36,000  Level FlightAware
08:24PM 39.7781 -99.5831 254° West 389 448 36,000  Level Denver Center
08:25PM 39.7481 -99.7175 254° West 389 448 36,000  Level Denver Center
08:26PM 39.7172 -99.8522 253° West 389 448 36,000  Level Denver Center
08:27PM 39.6847 -99.9956 254° West 390 449 36,000  Level Denver Center
08:28PM 39.6508 -100.1456 254° West 389 448 36,000  Level Denver Center
08:29PM 39.6211 -100.2719 253° West 384 442 36,000  Level Denver Center
08:30PM 39.5856 -100.4242 253° West 391 450 36,000  Level Denver Center
08:31PM 39.5564 -100.5553 254° West 393 452 36,000  Level Denver Center
08:32PM 39.5206 -100.7061 253° West 394 453 36,000  Level Denver Center
08:33PM 39.4903 -100.8344 253° West 390 449 36,000  Level Denver Center
08:34PM 39.4597 -100.9625 253° West 389 448 36,000  Level Denver Center
08:40PM 39.2560 -101.8060 253° West 391 450 36,000  Level FlightAware
08:41PM 39.2360 -101.8860 252° West 391 450 36,000  Level FlightAware
08:42PM 39.2190 -101.9520 252° West 391 450 36,000  Level FlightAware
08:42PM 39.2020 -102.0220 253° West 391 450 36,000  Level FlightAware
08:43PM 39.1850 -102.0900 252° West 391 450 36,000  Level FlightAware
08:43PM 39.1560 -102.2100 253° West 389 448 36,000  Level FlightAware
08:44PM 39.1370 -102.2850 252° West 389 448 36,000  Level FlightAware
08:45PM 39.1200 -102.3530 252° West 389 448 36,000  Level FlightAware
08:45PM 39.0920 -102.4630 252° West 392 451 36,000  Level FlightAware
08:46PM 39.0720 -102.5430 252° West 394 453 36,000  Level FlightAware
08:46PM 39.0530 -102.6200 252° West 392 451 36,000  Level FlightAware
08:47PM 39.0320 -102.6970 251° West 392 451 36,000  Level FlightAware
08:48PM 39.0080 -102.7920 252° West 388 447 36,000  Level FlightAware
08:48PM 38.9900 -102.8630 252° West 386 444 36,000  Level FlightAware
08:49PM 38.9710 -102.9380 252° West 383 441 36,000  Level FlightAware
08:49PM 38.9500 -103.0210 252° West 382 440 36,000  Level FlightAware
08:50PM 38.9330 -103.0860 251° West 384 442 36,000  Level FlightAware
08:51PM 38.9110 -103.1680 251° West 387 445 36,000  Level FlightAware
08:51PM 38.8910 -103.2450 252° West 388 447 36,000  Level FlightAware
08:52PM 38.8700 -103.3260 252° West 390 449 36,000  Level FlightAware
08:52PM 38.8520 -103.3960 252° West 390 449 36,000  Level FlightAware
08:53PM 38.8300 -103.4790 251° West 390 449 36,000  Level FlightAware
08:53PM 38.8120 -103.5450 251° West 389 448 36,000  Level FlightAware
08:54PM 38.7910 -103.6270 252° West 391 450 36,000  Level FlightAware
08:55PM 38.7710 -103.7000 251° West 393 452 36,000  Level FlightAware
08:55PM 38.7510 -103.7770 252° West 392 451 36,000  Level FlightAware
08:56PM 38.7300 -103.8550 251° West 388 447 36,000 540 Level FlightAware
08:56PM 38.7090 -103.9350 251° West 381 438 36,700 1,020 Climbing FlightAware
08:57PM 38.6910 -104.0000 250° West 378 435 37,200 840 Climbing FlightAware
08:58PM 38.6700 -104.0790 251° West 378 435 37,700 600 Climbing FlightAware
08:58PM 38.6490 -104.1550 251° West 382 440 38,000 240 Climbing FlightAware
08:59PM 38.6300 -104.2280 252° West 384 442 38,000  Level FlightAware
08:59PM 38.6100 -104.3000 250° West 384 442 38,000  Level FlightAware
09:00PM 38.5870 -104.3820 250° West 384 442 38,000  Level FlightAware
09:00PM 38.5700 -104.4470 252° West 385 443 38,000  Level FlightAware
09:01PM 38.5480 -104.5280 251° West 385 443 38,000  Level FlightAware
09:02PM 38.5250 -104.6090 250° West 386 444 38,000  Level FlightAware
09:02PM 38.5070 -104.6750 251° West 387 445 38,000  Level FlightAware
09:03PM 38.4860 -104.7500 250° West 389 448 38,000  Level FlightAware
09:03PM 38.4670 -104.8220 251° West 388 447 38,000  Level FlightAware
09:04PM 38.4450 -104.8970 249° West 389 448 38,000  Level FlightAware
09:05PM 38.4240 -104.9750 251° West 390 449 38,000  Level FlightAware
09:05PM 38.4040 -105.0440 250° West 392 451 38,000  Level FlightAware
09:06PM 38.3810 -105.1280 251° West 393 452 38,000  Level FlightAware
09:06PM 38.3620 -105.1960 250° West 394 453 38,000  Level FlightAware
09:07PM 38.3390 -105.2770 250° West 392 451 38,000  Level FlightAware
09:07PM 38.3170 -105.3540 250° West 390 449 38,000  Level FlightAware
09:08PM 38.2980 -105.4220 250° West 390 449 38,000  Level FlightAware
09:09PM 38.2750 -105.5030 250° West 392 451 38,000  Level FlightAware
09:09PM 38.2520 -105.5840 250° West 392 451 38,000  Level FlightAware
09:10PM 38.2310 -105.6560 250° West 391 450 38,000  Level FlightAware
09:10PM 38.2100 -105.7310 250° West 389 448 38,000  Level FlightAware
09:11PM 38.1890 -105.8010 249° West 387 445 38,000  Level FlightAware
09:12PM 38.1650 -105.8840 250° West 383 441 38,000  Level FlightAware
09:12PM 38.1460 -105.9510 250° West 384 442 38,000  Level FlightAware
09:13PM 38.1230 -106.0300 250° West 385 443 38,000  Level FlightAware
09:13PM 38.1010 -106.1050 250° West 386 444 38,000  Level FlightAware
09:14PM 38.0820 -106.1720 250° West 388 447 38,000  Level FlightAware
09:15PM 38.0550 -106.2640 250° West 389 448 38,000  Level FlightAware
09:15PM 38.0330 -106.3390 250° West 389 448 38,000  Level FlightAware
09:16PM 38.0100 -106.4150 249° West 391 450 38,000  Level FlightAware
09:16PM 37.9870 -106.4950 250° West 392 451 38,000  Level FlightAware
09:17PM 37.9620 -106.5790 249° West 395 455 38,000  Level FlightAware
09:18PM 37.9420 -106.6440 249° West 396 456 38,000  Level FlightAware
09:18PM 37.9170 -106.7310 250° West 398 458 38,000  Level FlightAware
09:19PM 37.8910 -106.8180 249° West 394 453 38,000  Level FlightAware
09:19PM 37.8680 -106.8930 249° West 391 450 38,000  Level FlightAware
09:20PM 37.8470 -106.9620 249° West 392 451 38,000  Level FlightAware
09:21PM 37.8240 -107.0410 250° West 395 455 38,000  Level FlightAware
09:21PM 37.7990 -107.1210 248° West 395 455 38,000  Level FlightAware
09:22PM 37.7860 -107.1640 249° West 396 456 38,000  Level FlightAware
09:22PM 37.7560 -107.2630 249° West 395 455 38,000  Level FlightAware
09:23PM 37.7340 -107.3370 249° West 394 453 38,000  Level FlightAware
09:23PM 37.7100 -107.4140 249° West 393 452 38,000  Level FlightAware
09:24PM 37.6880 -107.4880 249° West 392 451 38,000  Level FlightAware
09:25PM 37.6660 -107.5570 248° West 392 451 38,000  Level FlightAware
09:25PM 37.6460 -107.6240 249° West 392 451 38,000  Level FlightAware
09:26PM 37.6240 -107.6960 249° West 393 452 38,000  Level FlightAware
09:26PM 37.5990 -107.7750 248° West 393 452 38,000  Level FlightAware
09:27PM 37.5790 -107.8390 248° West 395 455 38,000  Level FlightAware
09:27PM 37.5540 -107.9210 249° West 397 457 38,000  Level FlightAware
09:28PM 37.5300 -107.9990 249° West 396 456 38,000  Level FlightAware
09:29PM 37.5070 -108.0710 248° West 394 453 38,000  Level FlightAware
09:29PM 37.4850 -108.1400 248° West 394 453 38,000  Level FlightAware
09:30PM 37.4580 -108.2260 248° West 396 456 38,000  Level FlightAware
09:30PM 37.4370 -108.2950 249° West 396 456 38,000  Level FlightAware
09:31PM 37.4140 -108.3660 248° West 395 455 38,000  Level FlightAware
09:32PM 37.3910 -108.4410 249° West 395 455 38,000  Level FlightAware
09:32PM 37.3500 -108.5690 248° West 392 451 38,000  Level FlightAware
09:33PM 37.3310 -108.6270 248° West 393 452 38,000  Level FlightAware
09:34PM 37.2970 -108.7340 248° West 393 452 38,000  Level FlightAware
09:35PM 37.2660 -108.8310 248° West 394 453 38,000  Level FlightAware
09:35PM 37.2420 -108.9050 248° West 395 455 38,000  Level FlightAware
09:36PM 37.2180 -108.9790 248° West 396 456 38,000  Level FlightAware
09:36PM 37.1950 -109.0520 248° West 397 457 38,000  Level FlightAware
09:37PM 37.1710 -109.1250 248° West 398 458 38,000  Level FlightAware
09:37PM 37.1490 -109.1930 248° West 398 458 38,000  Level FlightAware
09:38PM 37.1140 -109.2980 247° West 398 458 38,000  Level FlightAware
09:39PM 37.0910 -109.3650 247° West 398 458 38,000  Level FlightAware
09:39PM 37.0690 -109.4300 247° West 398 458 38,000  Level FlightAware
09:40PM 37.0460 -109.4990 247° West 398 458 38,000  Level FlightAware
09:41PM 37.0240 -109.5640 247° West 398 458 38,000  Level FlightAware
09:41PM 36.9960 -109.6470 247° West 398 458 38,000  Level FlightAware
09:42PM 36.9730 -109.7130 246° West 398 458 38,000  Level FlightAware
09:43PM 36.9510 -109.7780 247° West 398 458 38,000  Level FlightAware
09:43PM 37.1070 -109.8920 330° Northwest 423 487 38,000  Level FlightAware
09:44PM 37.1430 -109.9690 300° West 405 466 38,000  Level FlightAware
09:44PM 37.1490 -110.0030 282° West 398 458 38,000  Level FlightAware
09:44PM 37.1500 -110.0760 271° West 395 455 38,000  Level FlightAware
09:45PM 37.1510 -110.1460 271° West 395 455 38,000  Level FlightAware
09:46PM 37.1520 -110.2160 271° West 395 455 38,000  Level FlightAware
09:46PM 37.1530 -110.2880 271° West 395 455 38,000  Level FlightAware
09:47PM 37.1540 -110.3580 271° West 395 455 38,000  Level FlightAware
09:47PM 37.1550 -110.4280 271° West 395 455 38,000  Level FlightAware
09:48PM 37.1560 -110.4990 271° West 395 455 38,000  Level FlightAware
09:49PM 37.1570 -110.5710 271° West 395 455 38,000  Level FlightAware
09:49PM 37.1580 -110.6430 271° West 395 455 38,000  Level FlightAware
09:50PM 37.1590 -110.7130 271° West 395 455 38,000  Level FlightAware
09:50PM 37.1600 -110.7830 271° West 395 455 38,000  Level FlightAware
09:51PM 37.1610 -110.8530 271° West 395 455 38,000  Level FlightAware
09:51PM 36.7850 -110.9320 190° South 400 460 38,000  Level FlightAware
09:52PM 36.7540 -111.0040 242° Southwest 400 460 38,000  Level FlightAware
09:52PM 36.7260 -111.0700 242° Southwest 400 460 38,000  Level FlightAware
09:53PM 36.6940 -111.1430 241° Southwest 395 455 38,000  Level FlightAware
09:54PM 36.6640 -111.2150 243° Southwest 393 452 38,000  Level FlightAware
09:54PM 36.6350 -111.2810 241° Southwest 391 450 38,000  Level FlightAware
09:55PM 36.6050 -111.3500 242° Southwest 392 451 38,000  Level FlightAware
09:55PM 36.5730 -111.4250 242° Southwest 392 451 38,000  Level FlightAware
09:56PM 36.5460 -111.4880 242° Southwest 393 452 38,000  Level FlightAware
09:57PM 36.5170 -111.5630 244° Southwest 396 456 38,000  Level FlightAware
09:57PM 36.4890 -111.6330 244° Southwest 397 457 38,000  Level FlightAware
09:58PM 36.4590 -111.7090 244° Southwest 398 458 38,000  Level FlightAware
09:58PM 36.4310 -111.7770 243° Southwest 398 458 38,000  Level FlightAware
09:59PM 36.4010 -111.8530 244° Southwest 400 460 38,000  Level FlightAware
09:59PM 36.3760 -111.9150 243° Southwest 399 459 38,000  Level FlightAware
10:01PM 36.3280 -112.0320 243° Southwest 399 459 38,000  Level FlightAware
10:01PM 36.2940 -112.1160 243° Southwest 399 459 38,000  Level FlightAware
10:02PM 36.2660 -112.1850 243° Southwest 399 459 38,000  Level FlightAware
10:02PM 36.2340 -112.2630 243° Southwest 399 459 38,000  Level FlightAware
10:03PM 36.2090 -112.3260 244° Southwest 399 459 38,000  Level FlightAware
10:04PM 36.1680 -112.4250 243° Southwest 398 458 38,000  Level FlightAware
10:04PM 36.1420 -112.4890 243° Southwest 398 458 38,000  Level FlightAware
10:05PM 36.1120 -112.5620 243° Southwest 398 458 38,000  Level FlightAware
10:05PM 36.0820 -112.6360 243° Southwest 396 456 38,000  Level FlightAware
10:06PM 36.0520 -112.7070 242° Southwest 394 453 38,000  Level FlightAware
10:06PM 36.0260 -112.7710 243° Southwest 394 453 38,000  Level FlightAware
10:07PM 35.9960 -112.8430 243° Southwest 394 453 38,000  Level FlightAware
10:08PM 35.9660 -112.9140 242° Southwest 396 456 38,000  Level FlightAware
10:08PM 35.9360 -112.9880 243° Southwest 398 458 38,000  Level FlightAware
10:09PM 35.9080 -113.0530 242° Southwest 400 460 38,000  Level FlightAware
10:09PM 35.8770 -113.1290 243° Southwest 401 461 38,000  Level FlightAware
10:10PM 35.8490 -113.1940 242° Southwest 400 460 38,000  Level FlightAware
10:11PM 35.8180 -113.2680 243° Southwest 400 460 38,000  Level FlightAware
10:11PM 35.7880 -113.3410 243° Southwest 400 460 38,000  Level FlightAware
10:12PM 35.7580 -113.4100 242° Southwest 402 463 38,000  Level FlightAware
10:12PM 35.7280 -113.4830 243° Southwest 402 463 38,000  Level FlightAware
10:13PM 35.6990 -113.5500 242° Southwest 402 463 38,000  Level FlightAware
10:13PM 35.6690 -113.6220 243° Southwest 402 463 38,000  Level FlightAware
10:14PM 35.6390 -113.6920 242° Southwest 403 464 38,000  Level FlightAware
10:15PM 35.6100 -113.7600 242° Southwest 403 464 38,000  Level FlightAware
10:15PM 35.5770 -113.8370 242° Southwest 404 465 38,000  Level FlightAware
10:16PM 35.5450 -113.9110 242° Southwest 403 464 38,000  Level FlightAware
10:16PM 35.5180 -113.9760 243° Southwest 401 461 38,000  Level FlightAware
10:17PM 35.4870 -114.0480 242° Southwest 400 460 38,000  Level FlightAware
10:18PM 35.4580 -114.1130 241° Southwest 400 460 38,000  Level FlightAware
10:18PM 35.4280 -114.1840 243° Southwest 400 460 38,000  Level FlightAware
10:19PM 35.3960 -114.2570 242° Southwest 401 461 38,000  Level FlightAware
10:19PM 35.3670 -114.3250 242° Southwest 402 463 38,000  Level FlightAware
10:20PM 35.3360 -114.3960 242° Southwest 403 464 38,000  Level FlightAware
10:20PM 35.3060 -114.4640 242° Southwest 403 464 38,000  Level FlightAware
10:21PM 35.2720 -114.5420 242° Southwest 404 465 38,000  Level FlightAware
10:22PM 35.2440 -114.6070 242° Southwest 406 467 38,000  Level FlightAware
10:22PM 35.2100 -114.6830 241° Southwest 408 470 38,000  Level FlightAware
10:23PM 35.1780 -114.7570 242° Southwest 408 470 38,000  Level FlightAware
10:23PM 35.1500 -114.8210 242° Southwest 408 470 38,000  Level FlightAware
10:24PM 35.1200 -114.8900 242° Southwest 406 467 38,000  Level FlightAware
10:25PM 35.0860 -114.9660 241° Southwest 402 463 38,000  Level FlightAware
10:25PM 35.0560 -115.0340 242° Southwest 400 460 38,000  Level FlightAware
10:26PM 35.0280 -115.0960 241° Southwest 399 459 38,000  Level FlightAware
10:26PM 34.9950 -115.1700 241° Southwest 397 457 38,000  Level FlightAware
10:27PM 34.9640 -115.2400 242° Southwest 398 458 38,000  Level FlightAware
10:28PM 34.9320 -115.3110 241° Southwest 397 457 38,000  Level FlightAware
10:28PM 34.8970 -115.3910 242° Southwest 394 453 38,000  Level FlightAware
10:29PM 34.8670 -115.4570 241° Southwest 392 451 38,000  Level FlightAware
10:29PM 34.8340 -115.5310 242° Southwest 392 451 38,000  Level FlightAware
10:30PM 34.8070 -115.5900 241° Southwest 391 450 38,000  Level FlightAware
10:31PM 34.7750 -115.6620 242° Southwest 395 455 38,000  Level FlightAware
10:31PM 34.7430 -115.7330 241° Southwest 396 456 38,000  Level FlightAware
10:32PM 34.7000 -115.8270 241° Southwest 397 457 38,000 -420 Level FlightAware
10:33PM 34.6650 -115.9050 241° Southwest 397 457 37,400 -960 Descending FlightAware
10:33PM 34.6330 -115.9750 241° Southwest 398 458 36,800 -960 Descending FlightAware
10:34PM 34.6020 -116.0430 241° Southwest 395 455 36,300 -960 Descending FlightAware
10:34PM 34.5720 -116.1090 241° Southwest 395 455 35,700 -1,020 Descending FlightAware
10:35PM 34.5420 -116.1740 241° Southwest 403 464 35,200 -840 Descending FlightAware
10:36PM 34.5080 -116.2490 241° Southwest 415 478 34,700 -900 Descending FlightAware
10:36PM 34.4730 -116.3250 241° Southwest 416 479 34,100 -1,140 Descending FlightAware
10:37PM 34.4470 -116.3800 240° Southwest 416 479 33,500 -2,400 Descending FlightAware
10:37PM 34.4100 -116.4620 241° Southwest 419 482 31,400 -3,120 Descending FlightAware
10:38PM 34.3750 -116.5360 240° Southwest 426 490 29,600 -2,820 Descending FlightAware
10:38PM 34.3410 -116.6110 241° Southwest 446 513 28,100 -2,700 Descending FlightAware
10:39PM 34.3020 -116.6950 241° Southwest 453 521 26,400 -2,700 Descending FlightAware
10:40PM 34.2760 -116.7510 241° Southwest 446 513 25,300 -2,580 Descending FlightAware
10:40PM 34.2330 -116.8430 241° Southwest 440 506 23,500 -2,580 Descending FlightAware
10:41PM 34.2000 -116.9140 241° Southwest 427 491 22,100 -2,520 Descending FlightAware
10:41PM 34.1750 -116.9660 240° Southwest 415 478 21,000 -1,860 Descending FlightAware
10:42PM 34.1300 -117.0630 241° Southwest 392 451 19,800 -1,500 Descending FlightAware
10:43PM 34.1020 -117.1220 240° Southwest 382 440 19,000 -1,080 Descending FlightAware
10:43PM 34.0710 -117.1920 242° Southwest 369 425 18,600 -2,160 Descending FlightAware
10:44PM 34.0480 -117.2630 249° West 384 442 16,400 -2,760 Descending FlightAware
10:44PM 34.0400 -117.3380 263° West 367 422 15,300 -1,620 Descending FlightAware
10:45PM 34.0340 -117.4020 264° West 341 392 14,600 -1,500 Descending FlightAware
10:46PM 34.0270 -117.4670 263° West 330 380 13,600 -1,680 Descending FlightAware
10:46PM 34.0210 -117.5300 263° West 314 361 12,700 -1,020 Descending FlightAware
10:47PM 34.0160 -117.5910 264° West 281 323 12,400 -900 Descending FlightAware
10:47PM 34.0110 -117.6380 263° West 270 311 11,700 -1,500 Descending FlightAware
10:48PM 34.0060 -117.6920 264° West 265 305 10,700 -1,740 Descending FlightAware
10:48PM 34.0020 -117.7330 263° West 266 306 9,900 -1,680 Descending FlightAware
10:49PM 33.9990 -117.7620 263° West 265 305 9,400 -1,500 Descending FlightAware
10:49PM 33.9970 -117.7860 264° West 263 303 9,000 -1,680 Descending FlightAware
10:49PM 33.9940 -117.8150 263° West 263 303 8,400 -1,740 Descending FlightAware
10:50PM 33.9920 -117.8380 264° West 261 300 8,000 -1,200 Descending FlightAware
10:50PM 33.9890 -117.8660 263° West 253 291 7,700 -1,320 Descending FlightAware
10:50PM 33.9870 -117.8840 262° West 256 295 7,300 -1,920 Descending FlightAware
10:50PM 33.9850 -117.9120 265° West 258 297 6,700 -1,320 Descending FlightAware
10:51PM 33.9810 -117.9490 263° West 255 293 6,300 -960 Descending FlightAware
10:51PM 33.9780 -117.9770 263° West 253 291 6,000 -900 Descending FlightAware
10:51PM 33.9750 -118.0060 263° West 254 292 5,700 -900 Descending FlightAware
10:52PM 33.9730 -118.0330 265° West 252 290 5,400 -960 Descending FlightAware
10:52PM 33.9690 -118.0670 262° West 252 290 5,000 -1,140 Descending FlightAware
10:53PM 33.9660 -118.0950 263° West 252 290 4,600 -1,080 Descending FlightAware
10:53PM 33.9640 -118.1230 265° West 250 288 4,300 -1,140 Descending FlightAware
10:53PM 33.9620 -118.1390 261° West 245 282 4,000 -1,380 Descending FlightAware
10:53PM 33.9590 -118.1700 263° West 236 272 3,500 -1,380 Descending FlightAware
10:54PM 33.9570 -118.1870 262° West 232 267 3,200 -960 Descending FlightAware
10:54PM 33.9550 -118.2120 264° West 215 247 3,000 -840 Descending FlightAware
10:54PM 33.9520 -118.2370 262° West 200 230 2,600 -1,200 Descending FlightAware
10:55PM 33.9510 -118.2510 265° West 192 221 2,300 -1,320 Descending FlightAware
10:55PM 33.9490 -118.2750 264° West 186 214 1,800 -1,140 Descending FlightAware
10:56PM 33.9450 -118.3050 261° West 166 191 1,300 -960 Descending FlightAware
10:56PM 33.9430 -118.3210 261° West 148 170 1,000 -840 Descending FlightAware
10:56PM 33.9410 -118.3430 264° West 143 165 700 -840 Descending FlightAware
10:57PM 33.9400 -118.3580 265° West 141 162 400 -720 Descending FlightAware
10:57PM 33.9380 -118.3790 263° West 137 158 100 -360 Descending FlightAware
10:58PM 33.9370 -118.3960 266° West 137 158 100  Level FlightAware
11:05PM 33.9333 -118.4000 259° West  Level FlightAware Approximate
11:06PM 33.9425 -118.4081 259° West  Level Estimated